Time;durP1;ratioP1;P1;durP2;ratioP2;P2;SDS_P1;SDS_P2;PMS_P1;PMS_P2;Temp;Humidity;BMP_temperature;BMP_pressure;BME280_temperature;BME280_humidity;BME280_pressure;Samples;Min_cycle;Max_cycle;Signal;HPM_P1;HPM_P2
2021/12/28 00:01:44;;;;;;;61.03;38.05;;;1.00;95.90;;;;;;5136492;27;20305;-64
2021/12/28 00:04:11;;;;;;;57.00;38.25;;;0.90;95.80;;;;;;5135147;27;20523;-64
2021/12/28 00:06:38;;;;;;;59.45;35.10;;;0.90;95.80;;;;;;5136228;27;20224;-63
2021/12/28 00:09:05;;;;;;;55.75;37.13;;;0.90;95.90;;;;;;5135940;27;20239;-64
2021/12/28 00:11:31;;;;;;;63.00;39.25;;;0.80;95.90;;;;;;5135386;27;20221;-64
2021/12/28 00:14:01;;;;;;;61.80;38.08;;;0.80;96.00;;;;;;5135758;27;20313;-65
2021/12/28 00:16:32;;;;;;;57.72;35.10;;;0.80;96.10;;;;;;5135376;27;20225;-64
2021/12/28 00:19:01;;;;;;;54.33;36.63;;;0.80;96.10;;;;;;5135653;27;20333;-64
2021/12/28 00:21:28;;;;;;;57.80;36.03;;;0.80;96.20;;;;;;5135187;27;20253;-63
2021/12/28 00:23:57;;;;;;;56.72;37.45;;;0.80;96.10;;;;;;5135503;27;20235;-63
2021/12/28 00:26:24;;;;;;;55.55;36.63;;;0.70;96.20;;;;;;5135361;27;20236;-64
2021/12/28 00:28:52;;;;;;;60.47;37.65;;;0.70;96.20;;;;;;5135909;27;20275;-64
2021/12/28 00:31:22;;;;;;;56.65;37.15;;;0.60;96.30;;;;;;5135156;27;20697;-64
2021/12/28 00:33:48;;;;;;;59.38;39.35;;;0.70;96.40;;;;;;5135366;27;20217;-64
2021/12/28 00:36:17;;;;;;;60.38;37.03;;;0.70;96.40;;;;;;5135304;27;20685;-64
2021/12/28 00:38:45;;;;;;;60.97;37.58;;;0.60;96.40;;;;;;5135455;27;20236;-64
2021/12/28 00:41:14;;;;;;;54.58;36.35;;;0.60;96.50;;;;;;5132852;27;20221;-63
2021/12/28 00:43:42;;;;;;;56.92;38.38;;;0.70;96.50;;;;;;5135447;27;20678;-64
2021/12/28 00:46:09;;;;;;;61.88;39.80;;;0.60;96.50;;;;;;5135334;27;20302;-62
2021/12/28 00:48:38;;;;;;;60.25;37.47;;;0.60;96.50;;;;;;5134931;27;20216;-64
2021/12/28 00:51:06;;;;;;;61.53;41.63;;;0.60;96.60;;;;;;5135255;27;20239;-63
2021/12/28 00:53:34;;;;;;;61.65;35.67;;;0.50;96.70;;;;;;5133563;27;20255;-64
2021/12/28 00:56:01;;;;;;;56.20;40.60;;;0.50;96.80;;;;;;5133331;27;20235;-64
2021/12/28 00:58:29;;;;;;;63.42;40.30;;;0.40;96.80;;;;;;5133093;27;20224;-65
2021/12/28 01:00:56;;;;;;;68.18;40.20;;;0.40;96.90;;;;;;5133556;27;20699;-64
2021/12/28 01:03:23;;;;;;;64.32;37.78;;;0.40;96.90;;;;;;5134540;27;20561;-64
2021/12/28 01:05:52;;;;;;;62.15;38.92;;;0.30;97.00;;;;;;5134822;27;20310;-64
2021/12/28 01:08:19;;;;;;;59.50;37.15;;;0.30;97.10;;;;;;5131563;27;20223;-64
2021/12/28 01:10:48;;;;;;;60.45;39.03;;;0.30;97.20;;;;;;5133095;27;20228;-64
2021/12/28 01:13:16;;;;;;;73.97;38.85;;;0.30;97.20;;;;;;5132008;27;20303;-64
2021/12/28 01:15:44;;;;;;;60.20;39.20;;;0.20;97.30;;;;;;5115246;27;20224;-64
2021/12/28 01:18:12;;;;;;;69.75;38.42;;;0.20;97.40;;;;;;5112531;27;20553;-64
2021/12/28 01:20:39;;;;;;;62.25;39.72;;;0.20;97.40;;;;;;5112620;27;20235;-64
2021/12/28 01:23:08;;;;;;;60.45;37.58;;;0.20;97.40;;;;;;5113546;27;20212;-64
2021/12/28 01:25:35;;;;;;;60.63;37.80;;;0.20;97.50;;;;;;5113909;27;20232;-64
2021/12/28 01:28:02;;;;;;;65.43;42.03;;;0.30;97.40;;;;;;5114190;27;20675;-63
2021/12/28 01:30:30;;;;;;;57.80;37.42;;;0.30;97.50;;;;;;5113498;27;20230;-64
2021/12/28 01:33:00;;;;;;;63.33;38.40;;;0.20;97.30;;;;;;5113998;27;20220;-65
2021/12/28 01:35:28;;;;;;;56.08;37.67;;;0.20;97.50;;;;;;5113648;27;20231;-64
2021/12/28 01:37:56;;;;;;;56.22;38.25;;;0.30;97.50;;;;;;5113939;27;20675;-64
2021/12/28 01:40:27;;;;;;;62.15;37.38;;;0.30;97.50;;;;;;5113349;27;20312;-64
2021/12/28 01:42:55;;;;;;;58.10;36.15;;;0.20;97.30;;;;;;5130869;27;20222;-64
2021/12/28 01:45:31;;;;;;;55.78;37.72;;;0.30;97.50;;;;;;5133473;27;20217;-64
2021/12/28 01:47:58;;;;;;;67.38;40.00;;;0.30;97.40;;;;;;5133005;27;20222;-64
2021/12/28 01:50:25;;;;;;;63.05;40.03;;;0.40;97.30;;;;;;5116913;27;20685;-64
2021/12/28 01:52:52;;;;;;;61.00;37.45;;;0.30;97.20;;;;;;5134095;27;20234;-64
2021/12/28 01:55:19;;;;;;;61.30;35.97;;;0.40;97.30;;;;;;5134015;27;20214;-64
2021/12/28 01:57:47;;;;;;;64.85;38.53;;;0.20;97.20;;;;;;5125444;27;20232;-64
2021/12/28 02:00:15;;;;;;;66.93;38.08;;;0.20;97.20;;;;;;5113642;27;20248;-64
2021/12/28 02:02:42;;;;;;;59.40;37.60;;;0.30;97.30;;;;;;5126162;27;20216;-64
2021/12/28 02:05:09;;;;;;;60.50;37.63;;;0.30;97.20;;;;;;5134305;27;20220;-64
2021/12/28 02:07:36;;;;;;;58.45;39.05;;;0.30;97.20;;;;;;5133376;27;20238;-62
2021/12/28 02:10:05;;;;;;;59.15;38.78;;;0.20;97.20;;;;;;5133981;27;20683;-64
2021/12/28 02:12:32;;;;;;;60.78;38.53;;;0.10;97.30;;;;;;5131223;27;20218;-64
2021/12/28 02:15:05;;;;;;;60.33;36.70;;;0.20;97.40;;;;;;5130299;27;20245;-62
2021/12/28 02:17:33;;;;;;;66.72;39.55;;;0.10;97.40;;;;;;5133173;27;20545;-63
2021/12/28 02:20:06;;;;;;;63.13;39.00;;;0.10;97.40;;;;;;5133919;27;20689;-63
2021/12/28 02:22:32;;;;;;;68.85;39.20;;;0.10;97.40;;;;;;5133187;27;20218;-63
2021/12/28 02:24:59;;;;;;;66.45;40.50;;;0.00;97.50;;;;;;5132854;27;20222;-63
2021/12/28 02:27:28;;;;;;;67.47;39.30;;;0.00;97.50;;;;;;5133537;27;20221;-62
2021/12/28 02:29:55;;;;;;;67.55;40.28;;;0.00;97.50;;;;;;5129317;27;20221;-63
2021/12/28 02:32:26;;;;;;;59.95;38.05;;;0.10;97.60;;;;;;5133404;27;20220;-64
2021/12/28 02:34:53;;;;;;;64.63;39.88;;;0.10;97.50;;;;;;5133717;27;20244;-64
2021/12/28 02:37:22;;;;;;;62.03;39.78;;;0.00;97.40;;;;;;5133395;27;20260;-63
2021/12/28 02:39:49;;;;;;;66.70;38.28;;;0.00;97.50;;;;;;5133621;27;20238;-64
2021/12/28 02:42:17;;;;;;;61.30;38.25;;;0.00;97.60;;;;;;5133328;27;20311;-63
2021/12/28 02:44:44;;;;;;;56.85;37.25;;;-0.10;97.50;;;;;;5132756;27;20281;-64
2021/12/28 02:47:11;;;;;;;70.63;40.72;;;-0.10;97.70;;;;;;5129188;27;20625;-64
2021/12/28 02:49:38;;;;;;;69.47;44.40;;;-0.20;97.70;;;;;;5133134;27;20242;-63
2021/12/28 02:52:09;;;;;;;59.60;36.22;;;-0.10;97.80;;;;;;5133397;27;20224;-63
2021/12/28 02:54:39;;;;;;;65.05;37.85;;;-0.10;97.90;;;;;;5133073;27;20232;-63
2021/12/28 02:57:06;;;;;;;69.78;38.33;;;-0.10;97.80;;;;;;5133097;27;20220;-62
2021/12/28 02:59:33;;;;;;;64.03;41.13;;;-0.10;97.70;;;;;;5133135;27;20230;-63
2021/12/28 03:02:00;;;;;;;63.08;38.72;;;-0.10;97.60;;;;;;5133573;27;20220;-63
2021/12/28 03:04:27;;;;;;;59.22;38.83;;;-0.10;97.70;;;;;;5132941;27;20231;-63
2021/12/28 03:06:54;;;;;;;70.30;41.25;;;0.00;97.80;;;;;;5122960;27;20233;-63
2021/12/28 03:09:22;;;;;;;60.67;39.85;;;-0.10;97.70;;;;;;5112874;27;20221;-63
2021/12/28 03:11:51;;;;;;;61.78;39.00;;;-0.10;97.60;;;;;;5112799;27;20222;-64
2021/12/28 03:14:18;;;;;;;65.03;40.90;;;-0.10;97.60;;;;;;5121639;27;20227;-63
2021/12/28 03:16:45;;;;;;;72.00;40.00;;;-0.10;97.40;;;;;;5132705;27;20303;-64
2021/12/28 03:19:12;;;;;;;64.53;41.30;;;-0.10;97.50;;;;;;5133257;27;20225;-64
2021/12/28 03:21:40;;;;;;;65.68;41.40;;;-0.10;97.50;;;;;;5132858;27;20240;-64
2021/12/28 03:24:08;;;;;;;62.78;40.67;;;-0.10;97.60;;;;;;5132664;27;20223;-64
2021/12/28 03:26:36;;;;;;;68.68;41.30;;;-0.10;97.50;;;;;;5122529;27;20228;-64
2021/12/28 03:29:05;;;;;;;62.15;37.25;;;-0.10;97.60;;;;;;5112797;27;20224;-64
2021/12/28 03:31:32;;;;;;;70.10;40.67;;;-0.10;97.70;;;;;;5112602;27;20658;-64
2021/12/28 03:33:59;;;;;;;71.00;43.40;;;-0.30;97.80;;;;;;5112622;27;20231;-64
2021/12/28 03:36:30;;;;;;;67.38;41.50;;;-0.30;98.10;;;;;;5116180;27;20691;-63
2021/12/28 03:38:58;;;;;;;70.18;39.83;;;-0.30;98.10;;;;;;5116176;27;20222;-64
2021/12/28 03:41:27;;;;;;;69.15;40.33;;;-0.30;98.10;;;;;;5130312;27;20217;-64
2021/12/28 03:43:56;;;;;;;73.03;42.97;;;-0.40;98.10;;;;;;5136428;27;20228;-64
2021/12/28 03:46:27;;;;;;;66.70;39.60;;;-0.30;98.20;;;;;;5136150;27;20224;-64
2021/12/28 03:48:54;;;;;;;66.00;43.30;;;-0.30;98.20;;;;;;5132097;27;20247;-64
2021/12/28 03:51:21;;;;;;;65.25;40.47;;;-0.30;98.20;;;;;;5136230;27;20225;-64
2021/12/28 03:53:49;;;;;;;75.55;42.63;;;-0.40;98.20;;;;;;5136054;27;20225;-64
2021/12/28 03:56:17;;;;;;;72.78;41.53;;;-0.30;98.30;;;;;;5136822;27;20228;-64
2021/12/28 03:58:45;;;;;;;61.60;41.03;;;-0.40;98.30;;;;;;5136184;27;20230;-63
2021/12/28 04:01:14;;;;;;;65.05;40.97;;;-0.50;98.30;;;;;;5136519;27;20693;-63
2021/12/28 04:03:43;;;;;;;83.80;43.45;;;-0.50;98.40;;;;;;5136151;27;20683;-64
2021/12/28 04:06:10;;;;;;;75.82;42.35;;;-0.50;98.50;;;;;;5136194;27;20252;-64
2021/12/28 04:08:39;;;;;;;72.32;41.10;;;-0.40;98.60;;;;;;5135872;27;20225;-64
2021/12/28 04:11:25;;;;;;;64.82;38.97;;;-0.40;98.50;;;;;;5135960;27;20223;-64
2021/12/28 04:13:54;;;;;;;73.15;42.65;;;-0.40;98.50;;;;;;5135689;27;20225;-64
2021/12/28 04:16:21;;;;;;;67.55;39.28;;;-0.40;98.40;;;;;;5136137;27;20229;-64
2021/12/28 04:18:50;;;;;;;65.82;40.85;;;-0.50;98.60;;;;;;5135776;27;20570;-64
2021/12/28 04:21:17;;;;;;;70.00;42.42;;;-0.50;98.70;;;;;;5136323;27;20222;-64
2021/12/28 04:23:44;;;;;;;68.50;39.78;;;-0.50;98.70;;;;;;5135609;27;20231;-64
2021/12/28 04:26:11;;;;;;;75.80;41.97;;;-0.50;98.50;;;;;;5136075;27;20233;-64
2021/12/28 04:28:37;;;;;;;81.40;42.95;;;-0.50;98.60;;;;;;5135360;27;20225;-64
2021/12/28 04:31:05;;;;;;;74.18;38.88;;;-0.50;98.80;;;;;;5135915;27;20228;-64
2021/12/28 04:33:31;;;;;;;70.10;42.10;;;-0.40;98.80;;;;;;5136073;27;20222;-64
2021/12/28 04:36:00;;;;;;;76.38;42.63;;;-0.40;98.70;;;;;;5134969;27;20565;-64
2021/12/28 04:38:27;;;;;;;72.30;42.10;;;-0.40;98.70;;;;;;5135532;27;20222;-64
2021/12/28 04:40:56;;;;;;;77.75;39.63;;;-0.30;98.80;;;;;;5135249;27;20220;-64
2021/12/28 04:43:23;;;;;;;65.53;42.03;;;-0.20;98.60;;;;;;5135829;27;20218;-64
2021/12/28 04:45:50;;;;;;;70.18;40.78;;;-0.20;98.50;;;;;;5134882;27;20251;-64
2021/12/28 04:48:17;;;;;;;80.25;45.38;;;-0.20;98.40;;;;;;5134854;27;20666;-64
2021/12/28 04:50:45;;;;;;;74.25;42.95;;;-0.20;98.30;;;;;;5134863;27;20238;-64
2021/12/28 04:53:14;;;;;;;65.28;41.70;;;-0.30;98.50;;;;;;5135106;27;20689;-64
2021/12/28 04:55:43;;;;;;;72.47;43.28;;;-0.30;98.70;;;;;;5134809;27;20232;-64
2021/12/28 04:58:10;;;;;;;69.60;42.42;;;-0.30;98.70;;;;;;5135519;27;20220;-64
2021/12/28 05:00:37;;;;;;;67.22;44.47;;;-0.30;98.70;;;;;;5135395;27;20677;-65
2021/12/28 05:03:05;;;;;;;74.93;45.17;;;-0.20;98.80;;;;;;5135206;27;20244;-64
2021/12/28 05:05:33;;;;;;;67.25;39.58;;;-0.20;98.60;;;;;;5135535;27;20298;-64
2021/12/28 05:07:59;;;;;;;75.82;41.38;;;-0.20;98.60;;;;;;5134645;27;20570;-64
2021/12/28 05:10:28;;;;;;;71.35;42.70;;;-0.20;98.50;;;;;;5134989;27;20222;-64
2021/12/28 05:12:54;;;;;;;68.95;41.90;;;-0.20;98.60;;;;;;5134793;27;20226;-65
2021/12/28 05:15:21;;;;;;;76.53;41.35;;;-0.20;98.60;;;;;;5135049;27;20228;-64
2021/12/28 05:17:48;;;;;;;71.47;42.60;;;-0.10;98.40;;;;;;5134785;27;20229;-65
2021/12/28 05:20:15;;;;;;;69.68;40.15;;;-0.20;98.50;;;;;;5135084;27;20235;-64
2021/12/28 05:22:42;;;;;;;67.65;40.70;;;-0.20;98.40;;;;;;5134346;27;20224;-64
2021/12/28 05:25:10;;;;;;;71.63;41.25;;;-0.20;98.60;;;;;;5135167;27;20223;-64
2021/12/28 05:27:38;;;;;;;70.93;42.97;;;-0.10;98.60;;;;;;5134856;27;20235;-65
2021/12/28 05:30:07;;;;;;;66.68;42.88;;;0.00;98.60;;;;;;5134266;27;20226;-64
2021/12/28 05:32:34;;;;;;;71.55;41.03;;;0.00;98.60;;;;;;5134961;27;20224;-63
2021/12/28 05:35:03;;;;;;;73.25;42.13;;;0.00;98.60;;;;;;5134367;27;21100;-64
2021/12/28 05:37:29;;;;;;;69.78;41.22;;;0.10;98.60;;;;;;5134575;27;20219;-64
2021/12/28 05:39:56;;;;;;;52.70;37.38;;;0.10;98.60;;;;;;5134312;27;20693;-64
2021/12/28 05:42:23;;;;;;;67.15;40.33;;;0.20;98.30;;;;;;5134394;27;20221;-64
2021/12/28 05:44:52;;;;;;;68.00;42.53;;;0.10;98.00;;;;;;5134220;27;20224;-64
2021/12/28 05:47:20;;;;;;;75.30;44.08;;;0.10;98.10;;;;;;5134557;27;20678;-64
2021/12/28 05:49:47;;;;;;;72.25;41.50;;;0.10;98.20;;;;;;5134078;27;20227;-63
2021/12/28 05:52:14;;;;;;;72.72;40.70;;;0.20;98.30;;;;;;5127605;27;20247;-62
2021/12/28 05:54:41;;;;;;;76.22;42.28;;;0.20;98.20;;;;;;5113870;27;20552;-63
2021/12/28 05:57:09;;;;;;;64.80;39.58;;;0.20;98.30;;;;;;5113404;27;20227;-63
2021/12/28 05:59:36;;;;;;;71.22;43.40;;;0.20;98.30;;;;;;5113515;27;20238;-64
2021/12/28 06:02:06;;;;;;;70.97;41.67;;;0.20;98.30;;;;;;5113210;27;20227;-64
2021/12/28 06:04:33;;;;;;;66.80;40.20;;;0.20;98.20;;;;;;5113570;27;20676;-64
2021/12/28 06:07:00;;;;;;;80.93;41.65;;;0.10;98.30;;;;;;5112854;27;20240;-64
2021/12/28 06:09:27;;;;;;;68.85;41.85;;;0.10;98.50;;;;;;5113643;27;20262;-64
2021/12/28 06:11:54;;;;;;;65.55;39.63;;;0.10;98.50;;;;;;5113147;27;20242;-64
2021/12/28 06:14:21;;;;;;;69.88;43.15;;;0.10;98.50;;;;;;5118122;27;20220;-64
2021/12/28 06:16:48;;;;;;;70.55;42.88;;;0.20;98.60;;;;;;5133779;27;20727;-64
2021/12/28 06:19:16;;;;;;;67.70;40.72;;;0.20;98.40;;;;;;5133742;27;20703;-63
2021/12/28 06:21:43;;;;;;;68.40;44.22;;;0.20;98.40;;;;;;5133756;27;20232;-64
2021/12/28 06:24:10;;;;;;;72.47;43.85;;;0.20;98.50;;;;;;5133648;27;20227;-64
2021/12/28 06:26:37;;;;;;;72.20;41.95;;;0.20;98.50;;;;;;5133839;27;20222;-65
2021/12/28 06:29:06;;;;;;;80.82;45.72;;;0.20;98.50;;;;;;5133712;27;20222;-63
2021/12/28 06:31:35;;;;;;;69.53;40.00;;;0.20;98.40;;;;;;5133549;27;20680;-64
2021/12/28 06:34:03;;;;;;;69.60;41.08;;;0.20;98.50;;;;;;5133392;27;20221;-63
2021/12/28 06:36:31;;;;;;;74.05;42.65;;;0.10;98.50;;;;;;5133880;27;20225;-64
2021/12/28 06:38:58;;;;;;;73.95;42.47;;;0.00;98.70;;;;;;5133347;27;20238;-63
2021/12/28 06:41:25;;;;;;;69.57;42.55;;;0.10;99.00;;;;;;5133680;27;20235;-64
2021/12/28 06:43:52;;;;;;;77.80;43.65;;;0.10;99.00;;;;;;5133254;27;20716;-64
2021/12/28 06:46:19;;;;;;;72.75;43.83;;;0.20;99.00;;;;;;5133513;27;20667;-64
2021/12/28 06:48:46;;;;;;;68.53;41.90;;;0.10;99.10;;;;;;5133737;27;20307;-63
2021/12/28 06:51:13;;;;;;;74.85;41.92;;;0.20;99.30;;;;;;5133414;27;21267;-64
2021/12/28 06:53:41;;;;;;;74.40;43.75;;;0.20;99.20;;;;;;5114966;27;20596;-64
2021/12/28 06:56:08;;;;;;;69.72;43.30;;;0.20;99.20;;;;;;5112472;27;20234;-63
2021/12/28 06:58:35;;;;;;;78.03;42.90;;;0.20;99.40;;;;;;5113113;27;20696;-63
2021/12/28 07:01:02;;;;;;;71.50;43.28;;;0.20;99.40;;;;;;5112415;27;20241;-64
2021/12/28 07:03:29;;;;;;;70.07;41.55;;;0.20;99.40;;;;;;5112956;27;20220;-65
2021/12/28 07:05:56;;;;;;;74.57;41.13;;;0.30;99.30;;;;;;5112537;27;20281;-64
2021/12/28 07:08:23;;;;;;;72.13;42.97;;;0.30;99.30;;;;;;5112652;27;20220;-64
2021/12/28 07:10:51;;;;;;;65.43;44.05;;;0.40;99.30;;;;;;5115199;27;20246;-63
2021/12/28 07:13:18;;;;;;;72.10;39.78;;;0.40;99.30;;;;;;5116973;27;20670;-63
2021/12/28 07:15:45;;;;;;;78.47;48.00;;;0.40;99.40;;;;;;5133401;27;20235;-64
2021/12/28 07:18:12;;;;;;;76.63;43.25;;;0.50;99.30;;;;;;5136991;27;20226;-64
2021/12/28 07:20:39;;;;;;;74.53;43.63;;;0.50;99.30;;;;;;5137230;27;20231;-63
2021/12/28 07:23:06;;;;;;;69.72;41.03;;;0.60;99.10;;;;;;5137027;27;20843;-64
2021/12/28 07:25:33;;;;;;;76.68;44.78;;;0.50;99.10;;;;;;5137348;27;20219;-64
2021/12/28 07:28:01;;;;;;;68.40;40.80;;;0.50;99.20;;;;;;5137023;27;20825;-63
2021/12/28 07:30:28;;;;;;;71.10;44.70;;;0.60;99.20;;;;;;5137246;27;20230;-63
2021/12/28 07:32:55;;;;;;;64.25;43.97;;;0.70;99.40;;;;;;5136898;27;20328;-64
2021/12/28 07:35:22;;;;;;;62.83;40.88;;;0.70;99.10;;;;;;5137080;27;20230;-64
2021/12/28 07:37:49;;;;;;;68.28;41.85;;;0.80;99.00;;;;;;5137137;27;20229;-64
2021/12/28 07:40:16;;;;;;;74.57;42.63;;;0.70;98.90;;;;;;5136641;27;20232;-64
2021/12/28 07:42:43;;;;;;;66.70;38.88;;;0.70;99.00;;;;;;5136946;27;20219;-64
2021/12/28 07:45:13;;;;;;;68.63;41.55;;;0.80;99.00;;;;;;5136371;27;20224;-64
2021/12/28 07:47:40;;;;;;;71.85;43.17;;;0.80;99.10;;;;;;5136985;27;20224;-64
2021/12/28 07:50:11;;;;;;;69.93;41.70;;;0.80;99.10;;;;;;5136218;27;20236;-64
2021/12/28 07:52:38;;;;;;;77.93;41.38;;;0.80;99.10;;;;;;5136611;27;20227;-64
2021/12/28 07:55:07;;;;;;;68.20;39.97;;;0.90;99.10;;;;;;5136331;27;20224;-65
2021/12/28 07:57:34;;;;;;;70.28;41.13;;;0.90;99.20;;;;;;5136729;27;20685;-64
2021/12/28 08:00:02;;;;;;;61.70;39.60;;;1.00;99.00;;;;;;5136109;27;20228;-64
2021/12/28 08:02:30;;;;;;;65.93;39.50;;;1.00;98.80;;;;;;5136875;27;20638;-62
2021/12/28 08:04:57;;;;;;;77.05;44.28;;;1.00;99.00;;;;;;5135998;27;20227;-65
2021/12/28 08:07:24;;;;;;;61.10;38.60;;;1.10;98.80;;;;;;5136265;27;20333;-64
2021/12/28 08:09:50;;;;;;;67.90;40.80;;;1.10;98.70;;;;;;5136608;27;20229;-64
2021/12/28 08:12:17;;;;;;;68.30;40.25;;;1.00;98.60;;;;;;5136012;27;20231;-64
2021/12/28 08:14:44;;;;;;;66.65;40.78;;;1.00;98.60;;;;;;5136137;27;20255;-63
2021/12/28 08:17:11;;;;;;;74.35;40.47;;;1.10;98.60;;;;;;5136018;27;20220;-64
2021/12/28 08:19:39;;;;;;;64.97;39.15;;;1.10;98.70;;;;;;5136033;27;20242;-64
2021/12/28 08:22:06;;;;;;;67.85;40.05;;;1.20;98.80;;;;;;5134347;27;20567;-64
2021/12/28 08:24:34;;;;;;;69.88;43.47;;;1.20;98.70;;;;;;5136251;27;20225;-64
2021/12/28 08:27:01;;;;;;;66.05;43.50;;;1.20;98.70;;;;;;5135651;27;20229;-65
2021/12/28 08:29:28;;;;;;;69.13;40.15;;;1.20;98.40;;;;;;5135975;27;20230;-64
2021/12/28 08:31:56;;;;;;;77.65;42.92;;;1.20;98.60;;;;;;5135668;27;20224;-64
2021/12/28 08:34:22;;;;;;;67.63;41.90;;;1.10;98.50;;;;;;5135912;27;20216;-64
2021/12/28 08:36:51;;;;;;;72.80;41.65;;;1.10;98.50;;;;;;5135962;27;20228;-64
2021/12/28 08:39:17;;;;;;;71.65;42.97;;;1.20;98.70;;;;;;5135328;27;20709;-64
2021/12/28 08:41:44;;;;;;;74.63;40.22;;;1.30;98.70;;;;;;5136006;27;20224;-64
2021/12/28 08:44:11;;;;;;;65.57;41.03;;;1.30;98.60;;;;;;5135420;27;20226;-63
2021/12/28 08:46:39;;;;;;;69.47;42.67;;;1.30;98.70;;;;;;5135520;27;20235;-64
2021/12/28 08:49:06;;;;;;;70.18;39.10;;;1.40;98.70;;;;;;5135122;27;20221;-64
2021/12/28 08:51:33;;;;;;;64.82;40.50;;;1.40;98.70;;;;;;5135857;27;20231;-63
2021/12/28 08:54:01;;;;;;;60.65;40.33;;;1.50;98.80;;;;;;5134915;27;20221;-64
2021/12/28 08:56:28;;;;;;;70.50;42.28;;;1.50;98.50;;;;;;5135317;27;20221;-64
2021/12/28 08:58:55;;;;;;;78.85;43.63;;;1.60;98.50;;;;;;5135564;27;20221;-64
2021/12/28 09:01:22;;;;;;;57.85;40.85;;;1.50;98.40;;;;;;5134967;27;20261;-64
2021/12/28 09:03:52;;;;;;;67.15;39.70;;;1.60;98.50;;;;;;5135541;27;20594;-64
2021/12/28 09:06:19;;;;;;;66.50;42.42;;;1.60;98.50;;;;;;5134807;27;20233;-65
2021/12/28 09:08:46;;;;;;;66.13;40.45;;;1.60;98.40;;;;;;5135266;27;20229;-63
2021/12/28 09:11:14;;;;;;;65.85;39.88;;;1.70;98.40;;;;;;5134706;27;20234;-63
2021/12/28 09:13:41;;;;;;;72.18;41.33;;;1.70;98.50;;;;;;5135420;27;20229;-63
2021/12/28 09:16:08;;;;;;;65.85;43.30;;;1.70;98.40;;;;;;5134602;27;20222;-64
2021/12/28 09:18:35;;;;;;;68.45;39.28;;;1.70;98.50;;;;;;5135159;27;20688;-65
2021/12/28 09:21:02;;;;;;;69.32;40.63;;;1.80;98.50;;;;;;5134576;27;20227;-63
2021/12/28 09:23:29;;;;;;;62.20;39.40;;;1.80;98.30;;;;;;5134944;27;20227;-64
2021/12/28 09:25:56;;;;;;;66.75;42.30;;;1.70;98.20;;;;;;5134976;27;20221;-64
2021/12/28 09:28:25;;;;;;;58.13;38.55;;;1.70;98.40;;;;;;5134581;27;20219;-64
2021/12/28 09:30:55;;;;;;;65.47;38.75;;;1.70;98.50;;;;;;5134955;27;20571;-63
2021/12/28 09:33:24;;;;;;;59.92;37.95;;;1.80;98.60;;;;;;5134092;27;20231;-63
2021/12/28 09:35:51;;;;;;;63.30;39.63;;;1.80;98.60;;;;;;5134783;27;20220;-64
2021/12/28 09:38:19;;;;;;;72.60;42.70;;;1.80;98.50;;;;;;5134222;27;20304;-63
2021/12/28 09:40:48;;;;;;;66.50;41.35;;;1.80;98.50;;;;;;5134626;27;20229;-64
2021/12/28 09:43:15;;;;;;;59.03;37.00;;;1.80;98.60;;;;;;5134411;27;20220;-63
2021/12/28 09:45:44;;;;;;;67.45;38.85;;;1.80;98.60;;;;;;5134610;27;20243;-63
2021/12/28 09:48:11;;;;;;;65.70;40.47;;;1.80;98.60;;;;;;5134308;27;20229;-64
2021/12/28 09:50:41;;;;;;;72.65;42.08;;;1.90;98.80;;;;;;5134563;27;20578;-64
2021/12/28 09:53:10;;;;;;;63.28;38.72;;;1.80;99.00;;;;;;5128443;27;20214;-65
2021/12/28 09:55:37;;;;;;;60.95;38.60;;;1.70;99.30;;;;;;5113994;27;20347;-63
2021/12/28 09:58:04;;;;;;;70.85;41.33;;;1.70;99.60;;;;;;5113363;27;20244;-65
2021/12/28 10:00:32;;;;;;;70.15;39.22;;;1.70;99.90;;;;;;5113676;27;20234;-64
2021/12/28 10:03:00;;;;;;;67.97;38.75;;;1.70;99.90;;;;;;5113869;27;20557;-63
2021/12/28 10:05:29;;;;;;;61.60;40.03;;;1.70;99.90;;;;;;5113748;27;20211;-64
2021/12/28 10:07:58;;;;;;;63.92;39.55;;;1.70;99.90;;;;;;5113511;27;20236;-64
2021/12/28 10:10:25;;;;;;;59.90;37.53;;;1.70;99.90;;;;;;5113091;27;20309;-64
2021/12/28 10:12:55;;;;;;;71.40;42.28;;;1.80;99.90;;;;;;5113633;27;20218;-64
2021/12/28 10:15:26;;;;;;;72.78;42.50;;;1.80;99.90;;;;;;5126558;27;20226;-65
2021/12/28 10:17:55;;;;;;;66.90;41.22;;;1.90;99.90;;;;;;5134044;27;20234;-64
2021/12/28 10:20:26;;;;;;;66.82;39.95;;;1.80;99.90;;;;;;5133468;27;20624;-64
2021/12/28 10:22:58;;;;;;;69.70;40.95;;;1.80;99.90;;;;;;5133911;27;20237;-63
2021/12/28 10:25:27;;;;;;;61.38;39.97;;;1.90;99.90;;;;;;5133626;27;20225;-64
2021/12/28 10:27:57;;;;;;;66.32;42.03;;;2.00;99.90;;;;;;5134057;27;20303;-64
2021/12/28 10:30:26;;;;;;;66.47;42.22;;;1.90;99.90;;;;;;5133496;27;20230;-63
2021/12/28 10:32:56;;;;;;;72.03;43.25;;;2.00;99.90;;;;;;5133449;27;20319;-64
2021/12/28 10:35:27;;;;;;;68.78;39.72;;;1.90;99.90;;;;;;5133359;27;20306;-64
2021/12/28 10:37:56;;;;;;;69.03;42.25;;;2.00;99.90;;;;;;5133652;27;20232;-64
2021/12/28 10:40:30;;;;;;;64.32;41.83;;;2.00;99.90;;;;;;5131934;27;20269;-64
2021/12/28 10:43:00;;;;;;;71.20;40.13;;;2.00;99.90;;;;;;5133946;27;20235;-64
2021/12/28 10:45:36;;;;;;;70.93;43.53;;;2.10;99.90;;;;;;5132571;27;20553;-64
2021/12/28 10:48:09;;;;;;;67.65;39.13;;;2.20;99.90;;;;;;5133827;27;20682;-64
2021/12/28 10:50:45;;;;;;;70.00;40.30;;;2.20;99.90;;;;;;5133028;27;20247;-64
2021/12/28 10:53:18;;;;;;;76.75;38.78;;;2.30;99.90;;;;;;5132940;27;20231;-64
2021/12/28 10:55:47;;;;;;;61.33;38.20;;;2.30;99.90;;;;;;5133363;27;20220;-64
2021/12/28 10:58:41;;;;;;;63.17;39.92;;;2.30;99.90;;;;;;5133328;27;20251;-64
2021/12/28 11:01:11;;;;;;;75.07;40.00;;;2.40;99.90;;;;;;5119569;27;20221;-64
2021/12/28 11:03:41;;;;;;;58.13;39.42;;;2.40;99.90;;;;;;5133306;27;20287;-65
2021/12/28 11:06:19;;;;;;;71.18;40.10;;;2.50;99.90;;;;;;5133516;27;20221;-64
2021/12/28 11:08:48;;;;;;;61.63;36.38;;;2.60;99.90;;;;;;5132899;27;20257;-63
2021/12/28 11:11:18;;;;;;;68.43;36.50;;;2.70;99.90;;;;;;5133582;27;20218;-64
2021/12/28 11:13:46;;;;;;;65.07;39.03;;;2.70;99.90;;;;;;5132986;27;20227;-64
2021/12/28 11:16:18;;;;;;;60.47;37.05;;;2.60;99.90;;;;;;5112786;27;20694;-63
2021/12/28 11:18:47;;;;;;;65.65;40.03;;;2.70;99.90;;;;;;5112603;27;20218;-64
2021/12/28 11:21:18;;;;;;;59.38;37.10;;;2.70;99.90;;;;;;5118307;27;20236;-64
2021/12/28 11:23:47;;;;;;;68.38;35.70;;;2.70;99.90;;;;;;5132936;27;20221;-64
2021/12/28 11:26:19;;;;;;;59.60;38.85;;;2.80;99.90;;;;;;5133326;27;20220;-64
2021/12/28 11:28:54;;;;;;;59.38;35.28;;;2.90;99.90;;;;;;5133110;27;20251;-64
2021/12/28 11:31:24;;;;;;;54.30;36.08;;;3.00;99.90;;;;;;5112745;27;20690;-64
2021/12/28 11:34:11;;;;;;;51.70;34.45;;;3.00;99.90;;;;;;5112361;27;21011;-64
2021/12/28 11:36:41;;;;;;;58.10;37.88;;;3.10;99.90;;;;;;5112130;27;20229;-64
2021/12/28 11:39:12;;;;;;;63.20;36.55;;;3.10;99.90;;;;;;5112671;27;20683;-64
2021/12/28 11:41:40;;;;;;;59.40;36.15;;;3.10;99.90;;;;;;5111945;27;20544;-64
2021/12/28 11:44:07;;;;;;;53.83;35.45;;;3.10;99.90;;;;;;5110882;27;20685;-64
2021/12/28 11:46:35;;;;;;;64.80;36.05;;;3.20;99.90;;;;;;5111687;27;20575;-65
2021/12/28 11:49:03;;;;;;;52.47;34.15;;;3.30;99.90;;;;;;5112138;27;20235;-64
2021/12/28 11:51:29;;;;;;;60.28;38.13;;;3.40;99.90;;;;;;5111903;27;20264;-64
2021/12/28 11:54:00;;;;;;;54.38;35.15;;;3.40;99.90;;;;;;5112528;27;20225;-63
2021/12/28 11:56:30;;;;;;;62.00;36.17;;;3.40;99.90;;;;;;5114239;27;20260;-64
2021/12/28 11:59:08;;;;;;;53.42;35.85;;;3.40;99.90;;;;;;5116055;27;20221;-64
2021/12/28 12:01:48;;;;;;;53.92;34.50;;;3.40;99.90;;;;;;5115594;27;20241;-64
2021/12/28 12:04:57;;;;;;;51.55;34.38;;;3.40;99.90;;;;;;5116035;27;20229;-64
2021/12/28 12:07:39;;;;;;;53.88;34.90;;;3.40;99.90;;;;;;5115530;27;20218;-64
2021/12/28 12:10:34;;;;;;;52.80;34.75;;;3.50;99.90;;;;;;5115684;27;20251;-64
2021/12/28 12:13:22;;;;;;;52.67;32.10;;;3.50;99.90;;;;;;5115712;27;20325;-64
2021/12/28 12:15:53;;;;;;;49.63;34.15;;;3.50;99.90;;;;;;5115836;27;20225;-65
2021/12/28 12:18:23;;;;;;;60.30;37.10;;;3.50;99.90;;;;;;5115232;27;21001;-64
2021/12/28 12:20:59;;;;;;;51.50;33.78;;;3.60;99.90;;;;;;5115742;27;20230;-65
2021/12/28 12:23:32;;;;;;;56.00;35.13;;;3.60;99.90;;;;;;5115490;27;21298;-64
2021/12/28 12:26:06;;;;;;;58.33;34.00;;;3.70;99.90;;;;;;5115601;27;20230;-64
2021/12/28 12:28:52;;;;;;;57.70;34.53;;;3.70;99.90;;;;;;5115294;27;20439;-64
2021/12/28 12:31:28;;;;;;;56.35;33.38;;;3.70;99.90;;;;;;5114982;27;20223;-63
2021/12/28 12:33:56;;;;;;;57.20;33.40;;;3.70;99.90;;;;;;5115394;27;20224;-64
2021/12/28 12:36:31;;;;;;;53.33;34.95;;;3.60;99.90;;;;;;5115024;27;20233;-64
2021/12/28 12:38:58;;;;;;;53.00;32.72;;;3.60;99.90;;;;;;5115290;27;20227;-63
2021/12/28 12:41:40;;;;;;;50.17;32.80;;;3.60;99.90;;;;;;5114861;27;20234;-65
2021/12/28 12:44:11;;;;;;;47.67;30.88;;;3.60;99.90;;;;;;5115153;27;20304;-65